sensor_id;sensor_type;location;lat;lon;timestamp;pressure;altitude;pressure_sealevel;temperature;humidity
84617;BME280;74846;51.126;16.944;2024-03-08T00:00:34;101076.33;;;0.65;67.04
84617;BME280;74846;51.126;16.944;2024-03-08T00:03:21;101070.46;;;0.58;67.47
84617;BME280;74846;51.126;16.944;2024-03-08T00:05:47;101079.25;;;0.66;67.68
84617;BME280;74846;51.126;16.944;2024-03-08T00:08:14;101080.13;;;0.66;67.81
84617;BME280;74846;51.126;16.944;2024-03-08T00:10:41;101079.95;;;0.63;68.16
84617;BME280;74846;51.126;16.944;2024-03-08T00:13:08;101079.45;;;0.62;68.34
84617;BME280;74846;51.126;16.944;2024-03-08T00:15:34;101081.52;;;0.63;67.66
84617;BME280;74846;51.126;16.944;2024-03-08T00:18:01;101071.84;;;0.59;67.69
84617;BME280;74846;51.126;16.944;2024-03-08T00:20:28;101080.48;;;0.61;67.20
84617;BME280;74846;51.126;16.944;2024-03-08T00:22:54;101079.81;;;0.59;67.25
84617;BME280;74846;51.126;16.944;2024-03-08T00:25:24;101080.02;;;0.52;67.68
84617;BME280;74846;51.126;16.944;2024-03-08T00:27:51;101080.02;;;0.50;67.68
84617;BME280;74846;51.126;16.944;2024-03-08T00:30:17;101079.67;;;0.48;67.73
84617;BME280;74846;51.126;16.944;2024-03-08T00:32:44;101076.40;;;0.44;67.48
84617;BME280;74846;51.126;16.944;2024-03-08T00:35:11;101066.06;;;0.36;67.77
84617;BME280;74846;51.126;16.944;2024-03-08T00:37:38;101079.36;;;0.37;68.14
84617;BME280;74846;51.126;16.944;2024-03-08T00:40:05;101075.41;;;0.31;67.68
84617;BME280;74846;51.126;16.944;2024-03-08T00:42:33;101080.28;;;0.24;67.87
84617;BME280;74846;51.126;16.944;2024-03-08T00:44:59;101077.86;;;0.23;67.80
84617;BME280;74846;51.126;16.944;2024-03-08T00:47:26;101068.37;;;0.13;68.33
84617;BME280;74846;51.126;16.944;2024-03-08T00:49:53;101061.10;;;0.10;68.10
84617;BME280;74846;51.126;16.944;2024-03-08T00:52:22;101066.99;;;0.11;68.67
84617;BME280;74846;51.126;16.944;2024-03-08T00:54:50;101066.28;;;0.13;68.26
84617;BME280;74846;51.126;16.944;2024-03-08T00:57:17;101064.23;;;0.09;68.37
84617;BME280;74846;51.126;16.944;2024-03-08T00:59:43;101060.61;;;0.04;68.46
84617;BME280;74846;51.126;16.944;2024-03-08T01:02:10;101060.97;;;-0.05;68.10
84617;BME280;74846;51.126;16.944;2024-03-08T01:04:37;101051.31;;;-0.18;68.80
84617;BME280;74846;51.126;16.944;2024-03-08T01:07:04;101055.81;;;-0.18;68.84
84617;BME280;74846;51.126;16.944;2024-03-08T01:09:30;101050.46;;;-0.25;70.19
84617;BME280;74846;51.126;16.944;2024-03-08T01:11:58;101055.98;;;-0.28;70.03
84617;BME280;74846;51.126;16.944;2024-03-08T01:14:25;101034.40;;;-0.42;69.45
84617;BME280;74846;51.126;16.944;2024-03-08T01:16:57;101046.51;;;-0.37;68.82
84617;BME280;74846;51.126;16.944;2024-03-08T01:19:24;101041.14;;;-0.43;68.48
84617;BME280;74846;51.126;16.944;2024-03-08T01:21:51;101045.29;;;-0.48;68.83
84617;BME280;74846;51.126;16.944;2024-03-08T01:24:19;101043.91;;;-0.50;69.32
84617;BME280;74846;51.126;16.944;2024-03-08T01:26:46;101045.29;;;-0.52;69.29
84617;BME280;74846;51.126;16.944;2024-03-08T01:29:13;101039.06;;;-0.58;69.01
84617;BME280;74846;51.126;16.944;2024-03-08T01:31:40;101040.63;;;-0.60;69.39
84617;BME280;74846;51.126;16.944;2024-03-08T01:34:06;101041.83;;;-0.60;69.44
84617;BME280;74846;51.126;16.944;2024-03-08T01:36:33;101034.75;;;-0.57;69.44
84617;BME280;74846;51.126;16.944;2024-03-08T01:39:00;101029.39;;;-0.57;69.11
84617;BME280;74846;51.126;16.944;2024-03-08T01:41:26;101029.57;;;-0.58;69.30
84617;BME280;74846;51.126;16.944;2024-03-08T01:43:56;101025.95;;;-0.60;69.06
84617;BME280;74846;51.126;16.944;2024-03-08T01:46:23;101026.13;;;-0.64;69.43
84617;BME280;74846;51.126;16.944;2024-03-08T01:48:50;101030.95;;;-0.71;69.38
84617;BME280;74846;51.126;16.944;2024-03-08T01:51:20;101031.30;;;-0.85;70.62
84617;BME280;74846;51.126;16.944;2024-03-08T01:53:48;101027.83;;;-0.96;70.99
84617;BME280;74846;51.126;16.944;2024-03-08T01:56:15;101022.98;;;-1.06;70.20
84617;BME280;74846;51.126;16.944;2024-03-08T01:58:42;101025.38;;;-1.12;70.69
84617;BME280;74846;51.126;16.944;2024-03-08T02:01:12;101029.34;;;-1.19;70.92
84617;BME280;74846;51.126;16.944;2024-03-08T02:03:41;101018.80;;;-1.26;70.65
84617;BME280;74846;51.126;16.944;2024-03-08T02:06:13;101026.91;;;-1.22;70.64
84617;BME280;74846;51.126;16.944;2024-03-08T02:08:43;101021.55;;;-1.24;70.98
84617;BME280;74846;51.126;16.944;2024-03-08T02:11:11;101017.77;;;-1.28;70.53
84617;BME280;74846;51.126;16.944;2024-03-08T02:13:38;101002.89;;;-1.37;70.65
84617;BME280;74846;51.126;16.944;2024-03-08T02:16:05;101006.19;;;-1.31;70.67
84617;BME280;74846;51.126;16.944;2024-03-08T02:18:34;101014.50;;;-1.19;70.80
84617;BME280;74846;51.126;16.944;2024-03-08T02:21:03;101017.95;;;-1.15;70.55
84617;BME280;74846;51.126;16.944;2024-03-08T02:23:31;101000.69;;;-1.19;70.35
84617;BME280;74846;51.126;16.944;2024-03-08T02:25:58;101014.86;;;-1.11;70.36
84617;BME280;74846;51.126;16.944;2024-03-08T02:28:25;101017.27;;;-1.12;70.49
84617;BME280;74846;51.126;16.944;2024-03-08T02:30:52;101016.58;;;-1.13;70.55
84617;BME280;74846;51.126;16.944;2024-03-08T02:33:23;101007.25;;;-1.23;70.97
84617;BME280;74846;51.126;16.944;2024-03-08T02:35:50;101012.59;;;-1.30;71.02
84617;BME280;74846;51.126;16.944;2024-03-08T02:38:19;101006.15;;;-1.46;71.19
84617;BME280;74846;51.126;16.944;2024-03-08T02:40:47;101010.80;;;-1.52;71.13
84617;BME280;74846;51.126;16.944;2024-03-08T02:43:15;101013.00;;;-1.59;71.46
84617;BME280;74846;51.126;16.944;2024-03-08T02:45:42;101012.83;;;-1.59;71.26
84617;BME280;74846;51.126;16.944;2024-03-08T02:48:10;101010.41;;;-1.62;71.07
84617;BME280;74846;51.126;16.944;2024-03-08T02:50:37;101008.67;;;-1.63;71.20
84617;BME280;74846;51.126;16.944;2024-03-08T02:53:06;100989.88;;;-1.68;71.83
84617;BME280;74846;51.126;16.944;2024-03-08T02:55:33;100988.84;;;-1.63;71.64
84617;BME280;74846;51.126;16.944;2024-03-08T02:58:02;101002.16;;;-1.54;71.11
84617;BME280;74846;51.126;16.944;2024-03-08T03:00:31;100995.96;;;-1.53;71.11
84617;BME280;74846;51.126;16.944;2024-03-08T03:02:58;100996.31;;;-1.49;71.14
84617;BME280;74846;51.126;16.944;2024-03-08T03:05:25;100992.88;;;-1.46;71.04
84617;BME280;74846;51.126;16.944;2024-03-08T03:07:52;100990.80;;;-1.45;70.92
84617;BME280;74846;51.126;16.944;2024-03-08T03:10:19;100975.43;;;-1.56;70.76
84617;BME280;74846;51.126;16.944;2024-03-08T03:12:45;100992.01;;;-1.50;71.22
84617;BME280;74846;51.126;16.944;2024-03-08T03:15:12;100990.60;;;-1.55;71.16
84617;BME280;74846;51.126;16.944;2024-03-08T03:17:39;100996.27;;;-1.60;71.37
84617;BME280;74846;51.126;16.944;2024-03-08T03:20:07;100995.05;;;-1.64;71.50
84617;BME280;74846;51.126;16.944;2024-03-08T03:22:40;100993.51;;;-1.65;71.68
84617;BME280;74846;51.126;16.944;2024-03-08T03:25:13;100995.23;;;-1.62;71.58
84617;BME280;74846;51.126;16.944;2024-03-08T03:27:40;101000.40;;;-1.63;71.99
84617;BME280;74846;51.126;16.944;2024-03-08T03:30:08;100999.38;;;-1.61;72.36
84617;BME280;74846;51.126;16.944;2024-03-08T03:32:50;100994.20;;;-1.56;72.44
84617;BME280;74846;51.126;16.944;2024-03-08T03:35:21;100992.51;;;-1.51;72.73
84617;BME280;74846;51.126;16.944;2024-03-08T03:37:49;100992.68;;;-1.50;72.30
84617;BME280;74846;51.126;16.944;2024-03-08T03:40:29;100994.26;;;-1.43;72.42
84617;BME280;74846;51.126;16.944;2024-03-08T03:42:55;100994.27;;;-1.40;72.95
84617;BME280;74846;51.126;16.944;2024-03-08T03:45:23;100988.40;;;-1.37;72.55
84617;BME280;74846;51.126;16.944;2024-03-08T03:47:50;100990.81;;;-1.38;72.43
84617;BME280;74846;51.126;16.944;2024-03-08T03:50:20;100989.78;;;-1.37;72.54
84617;BME280;74846;51.126;16.944;2024-03-08T03:52:48;100988.91;;;-1.40;73.06
84617;BME280;74846;51.126;16.944;2024-03-08T03:55:15;100990.13;;;-1.39;72.43
84617;BME280;74846;51.126;16.944;2024-03-08T03:57:41;100988.92;;;-1.39;72.71
84617;BME280;74846;51.126;16.944;2024-03-08T04:00:08;100990.79;;;-1.46;73.18
84617;BME280;74846;51.126;16.944;2024-03-08T04:02:38;100992.19;;;-1.44;73.33
84617;BME280;74846;51.126;16.944;2024-03-08T04:05:09;100985.11;;;-1.46;73.52
84617;BME280;74846;51.126;16.944;2024-03-08T04:07:37;100986.33;;;-1.43;73.59
84617;BME280;74846;51.126;16.944;2024-03-08T04:10:06;100976.83;;;-1.48;73.95
84617;BME280;74846;51.126;16.944;2024-03-08T04:12:33;100988.40;;;-1.41;73.34
84617;BME280;74846;51.126;16.944;2024-03-08T04:15:01;100980.98;;;-1.41;73.47
84617;BME280;74846;51.126;16.944;2024-03-08T04:17:28;100975.29;;;-1.37;72.97
84617;BME280;74846;51.126;16.944;2024-03-08T04:19:55;100983.25;;;-1.29;73.05
84617;BME280;74846;51.126;16.944;2024-03-08T04:22:22;100970.82;;;-1.37;73.09
84617;BME280;74846;51.126;16.944;2024-03-08T04:24:49;100979.09;;;-1.38;73.50
84617;BME280;74846;51.126;16.944;2024-03-08T04:27:15;100979.09;;;-1.38;73.06
84617;BME280;74846;51.126;16.944;2024-03-08T04:29:42;100973.55;;;-1.43;72.86
84617;BME280;74846;51.126;16.944;2024-03-08T04:32:09;100983.23;;;-1.39;72.83
84617;BME280;74846;51.126;16.944;2024-03-08T04:34:36;100980.98;;;-1.38;73.31
84617;BME280;74846;51.126;16.944;2024-03-08T04:37:04;100980.98;;;-1.40;72.55
84617;BME280;74846;51.126;16.944;2024-03-08T04:39:31;100983.73;;;-1.40;73.01
84617;BME280;74846;51.126;16.944;2024-03-08T04:41:59;100983.92;;;-1.37;72.76
84617;BME280;74846;51.126;16.944;2024-03-08T04:44:32;100983.59;;;-1.32;73.53
84617;BME280;74846;51.126;16.944;2024-03-08T04:47:00;100984.63;;;-1.28;73.63
84617;BME280;74846;51.126;16.944;2024-03-08T04:49:26;100983.25;;;-1.25;73.67
84617;BME280;74846;51.126;16.944;2024-03-08T04:51:54;100976.52;;;-1.26;73.82
84617;BME280;74846;51.126;16.944;2024-03-08T04:54:21;100976.87;;;-1.25;73.72
84617;BME280;74846;51.126;16.944;2024-03-08T04:56:48;100977.90;;;-1.27;73.60
84617;BME280;74846;51.126;16.944;2024-03-08T04:59:14;100973.92;;;-1.31;73.36
84617;BME280;74846;51.126;16.944;2024-03-08T05:01:41;100983.60;;;-1.27;72.70
84617;BME280;74846;51.126;16.944;2024-03-08T05:04:08;100983.94;;;-1.25;72.81
84617;BME280;74846;51.126;16.944;2024-03-08T05:06:36;100982.39;;;-1.25;72.97
84617;BME280;74846;51.126;16.944;2024-03-08T05:09:03;100980.30;;;-1.33;73.27
84617;BME280;74846;51.126;16.944;2024-03-08T05:11:43;100987.54;;;-1.39;73.11
84617;BME280;74846;51.126;16.944;2024-03-08T05:14:14;100984.60;;;-1.42;73.17
84617;BME280;74846;51.126;16.944;2024-03-08T05:16:46;100990.11;;;-1.44;72.94
84617;BME280;74846;51.126;16.944;2024-03-08T05:19:17;100979.24;;;-1.47;73.90
84617;BME280;74846;51.126;16.944;2024-03-08T05:21:44;100976.48;;;-1.43;73.52
84617;BME280;74846;51.126;16.944;2024-03-08T05:24:12;100976.14;;;-1.44;73.71
84617;BME280;74846;51.126;16.944;2024-03-08T05:26:39;100975.11;;;-1.39;73.67
84617;BME280;74846;51.126;16.944;2024-03-08T05:29:06;100974.42;;;-1.37;73.74
84617;BME280;74846;51.126;16.944;2024-03-08T05:31:39;100975.11;;;-1.37;73.38
84617;BME280;74846;51.126;16.944;2024-03-08T05:34:09;100973.91;;;-1.34;72.96
84617;BME280;74846;51.126;16.944;2024-03-08T05:36:36;100972.02;;;-1.30;73.08
84617;BME280;74846;51.126;16.944;2024-03-08T05:39:03;100969.62;;;-1.29;73.33
84617;BME280;74846;51.126;16.944;2024-03-08T05:41:32;100975.14;;;-1.27;72.64
84617;BME280;74846;51.126;16.944;2024-03-08T05:43:59;100972.38;;;-1.26;73.07
84617;BME280;74846;51.126;16.944;2024-03-08T05:46:26;100976.02;;;-1.23;73.03
84617;BME280;74846;51.126;16.944;2024-03-08T05:48:52;100978.42;;;-1.26;73.03
84617;BME280;74846;51.126;16.944;2024-03-08T05:51:23;100977.89;;;-1.28;72.44
84617;BME280;74846;51.126;16.944;2024-03-08T05:53:50;100985.15;;;-1.23;72.93
84617;BME280;74846;51.126;16.944;2024-03-08T05:56:19;100983.61;;;-1.20;73.45
84617;BME280;74846;51.126;16.944;2024-03-08T05:58:46;100984.48;;;-1.15;73.81
84617;BME280;74846;51.126;16.944;2024-03-08T06:01:14;100979.48;;;-1.14;73.64
84617;BME280;74846;51.126;16.944;2024-03-08T06:03:41;100986.91;;;-1.04;73.49
84617;BME280;74846;51.126;16.944;2024-03-08T06:06:12;100992.79;;;-0.94;73.66
84617;BME280;74846;51.126;16.944;2024-03-08T06:08:39;100988.13;;;-0.89;73.58
84617;BME280;74846;51.126;16.944;2024-03-08T06:11:06;100976.04;;;-0.86;73.39
84617;BME280;74846;51.126;16.944;2024-03-08T06:13:33;100989.87;;;-0.75;73.45
84617;BME280;74846;51.126;16.944;2024-03-08T06:16:00;100988.13;;;-0.74;73.14
84617;BME280;74846;51.126;16.944;2024-03-08T06:18:31;100991.40;;;-0.68;73.01
84617;BME280;74846;51.126;16.944;2024-03-08T06:20:57;100983.46;;;-0.68;72.74
84617;BME280;74846;51.126;16.944;2024-03-08T06:23:24;100992.61;;;-0.59;72.83
84617;BME280;74846;51.126;16.944;2024-03-08T06:25:51;100990.36;;;-0.53;72.91
84617;BME280;74846;51.126;16.944;2024-03-08T06:28:17;100992.60;;;-0.48;72.85
84617;BME280;74846;51.126;16.944;2024-03-08T06:30:44;100995.70;;;-0.43;72.78
84617;BME280;74846;51.126;16.944;2024-03-08T06:33:11;100985.68;;;-0.43;72.73
84617;BME280;74846;51.126;16.944;2024-03-08T06:35:38;100991.36;;;-0.34;72.88
84617;BME280;74846;51.126;16.944;2024-03-08T06:38:04;100986.52;;;-0.28;73.25
84617;BME280;74846;51.126;16.944;2024-03-08T06:40:31;100987.54;;;-0.18;73.22
84617;BME280;74846;51.126;16.944;2024-03-08T06:42:57;100987.33;;;-0.12;73.21
84617;BME280;74846;51.126;16.944;2024-03-08T06:45:24;100984.02;;;-0.00;73.31
84617;BME280;74846;51.126;16.944;2024-03-08T06:47:52;100975.53;;;0.06;73.06
84617;BME280;74846;51.126;16.944;2024-03-08T06:50:18;100977.74;;;0.17;72.93
84617;BME280;74846;51.126;16.944;2024-03-08T06:52:45;100982.38;;;0.22;72.68
84617;BME280;74846;51.126;16.944;2024-03-08T06:55:17;100976.50;;;0.25;72.31
84617;BME280;74846;51.126;16.944;2024-03-08T06:57:43;100986.46;;;0.36;72.15
84617;BME280;74846;51.126;16.944;2024-03-08T07:00:11;100989.06;;;0.36;72.25
84617;BME280;74846;51.126;16.944;2024-03-08T07:02:40;100977.67;;;0.30;72.26
84617;BME280;74846;51.126;16.944;2024-03-08T07:05:08;100991.81;;;0.41;72.32
84617;BME280;74846;51.126;16.944;2024-03-08T07:07:37;100993.70;;;0.42;72.52
84617;BME280;74846;51.126;16.944;2024-03-08T07:10:04;100990.23;;;0.46;72.65
84617;BME280;74846;51.126;16.944;2024-03-08T07:12:30;100984.47;;;0.55;72.66
84617;BME280;74846;51.126;16.944;2024-03-08T07:14:57;100990.14;;;0.62;72.73
84617;BME280;74846;51.126;16.944;2024-03-08T07:17:24;100985.61;;;0.67;72.59
84617;BME280;74846;51.126;16.944;2024-03-08T07:19:51;100986.94;;;0.77;72.55
84617;BME280;74846;51.126;16.944;2024-03-08T07:22:17;100990.16;;;0.88;72.16
84617;BME280;74846;51.126;16.944;2024-03-08T07:24:44;100990.95;;;0.97;71.98
84617;BME280;74846;51.126;16.944;2024-03-08T07:27:36;100986.73;;;1.05;71.62
84617;BME280;74846;51.126;16.944;2024-03-08T07:30:03;100982.02;;;1.11;71.31
84617;BME280;74846;51.126;16.944;2024-03-08T07:32:32;100984.59;;;1.15;71.31
84617;BME280;74846;51.126;16.944;2024-03-08T07:35:01;100984.73;;;1.18;71.32
84617;BME280;74846;51.126;16.944;2024-03-08T07:37:31;100979.36;;;1.19;70.98
84617;BME280;74846;51.126;16.944;2024-03-08T07:39:57;100982.27;;;1.21;71.15
84617;BME280;74846;51.126;16.944;2024-03-08T07:42:24;100985.48;;;1.31;71.63
84617;BME280;74846;51.126;16.944;2024-03-08T07:44:51;100982.44;;;1.45;71.64
84617;BME280;74846;51.126;16.944;2024-03-08T07:47:19;100988.20;;;1.57;71.53
84617;BME280;74846;51.126;16.944;2024-03-08T07:49:48;100981.32;;;1.70;71.38
84617;BME280;74846;51.126;16.944;2024-03-08T07:52:15;100979.83;;;1.81;71.00
84617;BME280;74846;51.126;16.944;2024-03-08T07:54:44;100969.21;;;1.83;70.68
84617;BME280;74846;51.126;16.944;2024-03-08T07:57:11;100981.67;;;2.00;70.37
84617;BME280;74846;51.126;16.944;2024-03-08T07:59:37;100975.36;;;2.07;70.13
84617;BME280;74846;51.126;16.944;2024-03-08T08:02:05;100978.07;;;2.13;70.13
84617;BME280;74846;51.126;16.944;2024-03-08T08:04:31;100978.52;;;2.19;70.15
84617;BME280;74846;51.126;16.944;2024-03-08T08:06:58;100973.74;;;2.26;69.73
84617;BME280;74846;51.126;16.944;2024-03-08T08:09:25;100979.00;;;2.35;69.83
84617;BME280;74846;51.126;16.944;2024-03-08T08:11:55;100972.27;;;2.46;69.70
84617;BME280;74846;51.126;16.944;2024-03-08T08:14:22;100973.00;;;2.56;69.14
84617;BME280;74846;51.126;16.944;2024-03-08T08:16:49;100976.88;;;2.64;69.28
84617;BME280;74846;51.126;16.944;2024-03-08T08:19:19;100976.50;;;2.78;69.49
84617;BME280;74846;51.126;16.944;2024-03-08T08:21:46;100964.24;;;2.86;69.26
84617;BME280;74846;51.126;16.944;2024-03-08T08:24:12;100967.52;;;2.98;69.14
84617;BME280;74846;51.126;16.944;2024-03-08T08:26:39;100968.23;;;3.08;68.90
84617;BME280;74846;51.126;16.944;2024-03-08T08:29:07;100963.75;;;3.17;68.92
84617;BME280;74846;51.126;16.944;2024-03-08T08:31:34;100960.81;;;3.26;68.26
84617;BME280;74846;51.126;16.944;2024-03-08T08:34:00;100958.60;;;3.32;68.35
84617;BME280;74846;51.126;16.944;2024-03-08T08:36:29;100957.38;;;3.43;68.14
84617;BME280;74846;51.126;16.944;2024-03-08T08:38:56;100956.12;;;3.56;67.53
84617;BME280;74846;51.126;16.944;2024-03-08T08:41:24;100959.08;;;3.65;67.53
84617;BME280;74846;51.126;16.944;2024-03-08T08:43:51;100960.34;;;3.72;67.40
84617;BME280;74846;51.126;16.944;2024-03-08T08:46:34;100959.80;;;3.82;67.18
84617;BME280;74846;51.126;16.944;2024-03-08T08:49:05;100958.14;;;3.88;66.98
84617;BME280;74846;51.126;16.944;2024-03-08T08:51:37;100958.39;;;3.92;66.80
84617;BME280;74846;51.126;16.944;2024-03-08T08:54:03;100956.94;;;3.95;66.42
84617;BME280;74846;51.126;16.944;2024-03-08T08:56:30;100955.67;;;4.06;66.95
84617;BME280;74846;51.126;16.944;2024-03-08T08:58:57;100950.80;;;4.15;66.31
84617;BME280;74846;51.126;16.944;2024-03-08T09:01:24;100941.92;;;4.23;66.63
84617;BME280;74846;51.126;16.944;2024-03-08T09:03:51;100946.56;;;4.34;65.45
84617;BME280;74846;51.126;16.944;2024-03-08T09:06:18;100939.21;;;4.36;65.23
84617;BME280;74846;51.126;16.944;2024-03-08T09:08:45;100941.30;;;4.44;65.54
84617;BME280;74846;51.126;16.944;2024-03-08T09:11:12;100926.36;;;4.50;65.21
84617;BME280;74846;51.126;16.944;2024-03-08T09:13:39;100939.15;;;4.70;64.75
84617;BME280;74846;51.126;16.944;2024-03-08T09:16:06;100939.57;;;4.81;64.52
84617;BME280;74846;51.126;16.944;2024-03-08T09:18:33;100941.98;;;4.90;63.96
84617;BME280;74846;51.126;16.944;2024-03-08T09:20:59;100941.18;;;4.95;64.09
84617;BME280;74846;51.126;16.944;2024-03-08T09:23:26;100940.09;;;4.96;64.11
84617;BME280;74846;51.126;16.944;2024-03-08T09:25:57;100941.16;;;4.95;63.85
84617;BME280;74846;51.126;16.944;2024-03-08T09:28:24;100934.42;;;5.00;63.71
84617;BME280;74846;51.126;16.944;2024-03-08T09:30:51;100928.14;;;5.07;63.04
84617;BME280;74846;51.126;16.944;2024-03-08T09:33:26;100923.55;;;5.17;62.82
84617;BME280;74846;51.126;16.944;2024-03-08T09:35:54;100923.77;;;5.29;62.76
84617;BME280;74846;51.126;16.944;2024-03-08T09:38:21;100923.25;;;5.35;61.40
84617;BME280;74846;51.126;16.944;2024-03-08T09:40:47;100920.53;;;5.39;62.20
84617;BME280;74846;51.126;16.944;2024-03-08T09:43:14;100917.58;;;5.45;60.88
84617;BME280;74846;51.126;16.944;2024-03-08T09:45:42;100920.90;;;5.52;61.72
84617;BME280;74846;51.126;16.944;2024-03-08T09:48:11;100898.98;;;5.50;62.40
84617;BME280;74846;51.126;16.944;2024-03-08T09:50:40;100908.34;;;5.71;60.38
84617;BME280;74846;51.126;16.944;2024-03-08T09:53:07;100906.55;;;5.86;61.49
84617;BME280;74846;51.126;16.944;2024-03-08T09:55:38;100887.18;;;5.86;60.46
84617;BME280;74846;51.126;16.944;2024-03-08T09:58:15;100905.30;;;5.94;59.16
84617;BME280;74846;51.126;16.944;2024-03-08T10:00:43;100900.55;;;5.88;60.45
84617;BME280;74846;51.126;16.944;2024-03-08T10:03:10;100898.62;;;5.95;60.12
84617;BME280;74846;51.126;16.944;2024-03-08T10:05:41;100885.83;;;6.03;59.34
84617;BME280;74846;51.126;16.944;2024-03-08T10:08:08;100892.46;;;6.03;58.11
84617;BME280;74846;51.126;16.944;2024-03-08T10:10:35;100891.48;;;6.06;59.41
84617;BME280;74846;51.126;16.944;2024-03-08T10:13:02;100889.20;;;6.18;59.17
84617;BME280;74846;51.126;16.944;2024-03-08T10:15:29;100882.65;;;6.32;59.27
84617;BME280;74846;51.126;16.944;2024-03-08T10:17:56;100883.02;;;6.37;57.27
84617;BME280;74846;51.126;16.944;2024-03-08T10:20:23;100873.48;;;6.34;57.96
84617;BME280;74846;51.126;16.944;2024-03-08T10:22:50;100881.49;;;6.48;57.51
84617;BME280;74846;51.126;16.944;2024-03-08T10:25:33;100881.57;;;6.56;57.91
84617;BME280;74846;51.126;16.944;2024-03-08T10:28:03;100883.40;;;6.65;57.73
84617;BME280;74846;51.126;16.944;2024-03-08T10:30:31;100885.02;;;6.74;57.48
84617;BME280;74846;51.126;16.944;2024-03-08T10:32:58;100885.38;;;6.79;56.38
84617;BME280;74846;51.126;16.944;2024-03-08T10:35:25;100881.23;;;6.83;57.39
84617;BME280;74846;51.126;16.944;2024-03-08T10:37:56;100886.55;;;6.97;56.78
84617;BME280;74846;51.126;16.944;2024-03-08T10:40:27;100884.42;;;7.03;56.14
84617;BME280;74846;51.126;16.944;2024-03-08T10:42:58;100881.05;;;7.04;56.56
84617;BME280;74846;51.126;16.944;2024-03-08T10:45:33;100882.52;;;7.12;56.63
84617;BME280;74846;51.126;16.944;2024-03-08T10:48:29;100883.73;;;7.28;56.23
84617;BME280;74846;51.126;16.944;2024-03-08T10:51:05;100876.95;;;7.37;55.18
84617;BME280;74846;51.126;16.944;2024-03-08T10:53:34;100875.73;;;7.42;52.86
84617;BME280;74846;51.126;16.944;2024-03-08T10:56:00;100870.52;;;7.41;54.23
84617;BME280;74846;51.126;16.944;2024-03-08T10:58:29;100869.27;;;7.57;54.83
84617;BME280;74846;51.126;16.944;2024-03-08T11:00:56;100863.45;;;7.77;54.75
84617;BME280;74846;51.126;16.944;2024-03-08T11:06:41;100853.73;;;8.11;51.47
84617;BME280;74846;51.126;16.944;2024-03-08T11:09:26;100851.30;;;8.16;52.67
84617;BME280;74846;51.126;16.944;2024-03-08T11:12:28;100857.92;;;8.35;51.49
84617;BME280;74846;51.126;16.944;2024-03-08T11:14:58;100857.98;;;8.47;50.14
84617;BME280;74846;51.126;16.944;2024-03-08T11:19:56;100844.88;;;8.81;51.27
84617;BME280;74846;51.126;16.944;2024-03-08T11:22:29;100841.09;;;9.03;51.00
84617;BME280;74846;51.126;16.944;2024-03-08T11:25:09;100830.93;;;9.24;49.62
84617;BME280;74846;51.126;16.944;2024-03-08T11:27:36;100822.13;;;9.41;48.08
84617;BME280;74846;51.126;16.944;2024-03-08T11:30:07;100816.48;;;9.41;46.04
84617;BME280;74846;51.126;16.944;2024-03-08T11:32:46;100822.39;;;9.43;46.66
84617;BME280;74846;51.126;16.944;2024-03-08T11:35:20;100817.39;;;9.48;47.97
84617;BME280;74846;51.126;16.944;2024-03-08T11:37:47;100811.10;;;9.63;47.95
84617;BME280;74846;51.126;16.944;2024-03-08T11:40:15;100808.90;;;9.80;47.80
84617;BME280;74846;51.126;16.944;2024-03-08T11:42:47;100803.44;;;9.96;45.98
84617;BME280;74846;51.126;16.944;2024-03-08T11:45:15;100801.55;;;9.95;44.63
84617;BME280;74846;51.126;16.944;2024-03-08T11:47:43;100794.59;;;9.86;46.15
84617;BME280;74846;51.126;16.944;2024-03-08T11:50:16;100797.44;;;10.04;46.42
84617;BME280;74846;51.126;16.944;2024-03-08T11:52:43;100796.58;;;10.30;46.18
84617;BME280;74846;51.126;16.944;2024-03-08T11:55:11;100788.99;;;10.41;45.33
84617;BME280;74846;51.126;16.944;2024-03-08T11:57:39;100783.10;;;10.54;45.29
84617;BME280;74846;51.126;16.944;2024-03-08T12:00:06;100781.02;;;10.64;43.27
84617;BME280;74846;51.126;16.944;2024-03-08T12:02:33;100775.32;;;10.55;41.40
84617;BME280;74846;51.126;16.944;2024-03-08T12:05:05;100775.94;;;10.42;42.99
84617;BME280;74846;51.126;16.944;2024-03-08T12:07:42;100770.95;;;10.64;43.37
84617;BME280;74846;51.126;16.944;2024-03-08T12:10:20;100770.69;;;10.77;43.21
84617;BME280;74846;51.126;16.944;2024-03-08T12:12:52;100763.54;;;11.00;42.64
84617;BME280;74846;51.126;16.944;2024-03-08T12:15:21;100768.49;;;11.16;42.16
84617;BME280;74846;51.126;16.944;2024-03-08T12:17:50;100760.00;;;11.23;42.37
84617;BME280;74846;51.126;16.944;2024-03-08T12:20:24;100757.71;;;11.30;41.82
84617;BME280;74846;51.126;16.944;2024-03-08T12:23:00;100757.71;;;11.40;41.28
84617;BME280;74846;51.126;16.944;2024-03-08T12:25:31;100754.06;;;11.42;41.31
84617;BME280;74846;51.126;16.944;2024-03-08T12:28:11;100753.45;;;11.50;41.43
84617;BME280;74846;51.126;16.944;2024-03-08T12:30:50;100750.32;;;11.53;39.28
84617;BME280;74846;51.126;16.944;2024-03-08T12:33:21;100743.64;;;11.30;38.91
84617;BME280;74846;51.126;16.944;2024-03-08T12:35:53;100741.64;;;11.14;39.41
84617;BME280;74846;51.126;16.944;2024-03-08T12:38:23;100737.15;;;11.23;39.00
84617;BME280;74846;51.126;16.944;2024-03-08T12:40:55;100737.59;;;11.14;39.65
84617;BME280;74846;51.126;16.944;2024-03-08T12:43:23;100737.71;;;11.19;40.45
84617;BME280;74846;51.126;16.944;2024-03-08T12:45:50;100730.71;;;11.37;41.08
84617;BME280;74846;51.126;16.944;2024-03-08T12:48:17;100732.39;;;11.52;40.72
84617;BME280;74846;51.126;16.944;2024-03-08T12:50:45;100726.55;;;11.59;40.15
84617;BME280;74846;51.126;16.944;2024-03-08T12:53:14;100727.52;;;11.78;40.73
84617;BME280;74846;51.126;16.944;2024-03-08T12:55:41;100722.98;;;12.02;41.08
84617;BME280;74846;51.126;16.944;2024-03-08T12:58:07;100717.55;;;12.23;39.77